sensor_id;sensor_type;location;lat;lon;timestamp;pressure;altitude;pressure_sealevel;temperature;humidity
51083;BME280;37131;42.694;23.350;2023-04-27T00:01:27;95186.59;;;8.35;52.85
51083;BME280;37131;42.694;23.350;2023-04-27T00:03:52;95177.38;;;8.39;52.89
51083;BME280;37131;42.694;23.350;2023-04-27T00:06:17;95175.03;;;8.31;53.17
51083;BME280;37131;42.694;23.350;2023-04-27T00:08:43;95190.09;;;8.22;53.07
51083;BME280;37131;42.694;23.350;2023-04-27T00:11:08;95192.00;;;8.01;53.35
51083;BME280;37131;42.694;23.350;2023-04-27T00:13:34;95198.72;;;8.16;53.01
51083;BME280;37131;42.694;23.350;2023-04-27T00:16:00;95196.84;;;7.98;53.05
51083;BME280;37131;42.694;23.350;2023-04-27T00:18:27;95199.69;;;7.44;54.41
51083;BME280;37131;42.694;23.350;2023-04-27T00:20:52;95201.56;;;7.69;54.67
51083;BME280;37131;42.694;23.350;2023-04-27T00:23:18;95204.09;;;7.82;53.50
51083;BME280;37131;42.694;23.350;2023-04-27T00:25:43;95207.31;;;7.78;53.65
51083;BME280;37131;42.694;23.350;2023-04-27T00:28:08;95211.13;;;7.75;55.47
51083;BME280;37131;42.694;23.350;2023-04-27T00:30:33;95204.06;;;7.89;53.47
51083;BME280;37131;42.694;23.350;2023-04-27T00:32:59;95197.53;;;7.80;53.41
51083;BME280;37131;42.694;23.350;2023-04-27T00:35:25;95200.53;;;7.77;53.95
51083;BME280;37131;42.694;23.350;2023-04-27T00:37:52;95206.88;;;7.81;54.36
51083;BME280;37131;42.694;23.350;2023-04-27T00:40:18;95209.38;;;7.62;54.29
51083;BME280;37131;42.694;23.350;2023-04-27T00:42:44;95209.03;;;7.45;54.47
51083;BME280;37131;42.694;23.350;2023-04-27T00:45:09;95212.41;;;7.59;54.56
51083;BME280;37131;42.694;23.350;2023-04-27T00:47:35;95203.78;;;7.65;53.98
51083;BME280;37131;42.694;23.350;2023-04-27T00:50:00;95211.22;;;7.48;54.46
51083;BME280;37131;42.694;23.350;2023-04-27T00:52:25;95209.47;;;7.35;55.43
51083;BME280;37131;42.694;23.350;2023-04-27T00:54:51;95212.09;;;7.29;55.24
51083;BME280;37131;42.694;23.350;2023-04-27T00:57:16;95209.94;;;7.19;54.61
51083;BME280;37131;42.694;23.350;2023-04-27T00:59:42;95205.13;;;7.29;55.01
51083;BME280;37131;42.694;23.350;2023-04-27T01:02:10;95212.91;;;7.16;55.13
51083;BME280;37131;42.694;23.350;2023-04-27T01:04:36;95204.81;;;6.72;56.24
51083;BME280;37131;42.694;23.350;2023-04-27T01:07:02;95216.56;;;6.88;56.51
51083;BME280;37131;42.694;23.350;2023-04-27T01:09:27;95219.53;;;6.92;57.85
51083;BME280;37131;42.694;23.350;2023-04-27T01:11:52;95224.91;;;6.83;57.24
51083;BME280;37131;42.694;23.350;2023-04-27T01:14:18;95224.31;;;7.01;57.89
51083;BME280;37131;42.694;23.350;2023-04-27T01:16:43;95226.06;;;7.14;56.47
51083;BME280;37131;42.694;23.350;2023-04-27T01:19:08;95226.69;;;7.16;58.93
51083;BME280;37131;42.694;23.350;2023-04-27T01:21:34;95220.31;;;7.19;57.26
51083;BME280;37131;42.694;23.350;2023-04-27T01:23:59;95225.28;;;7.14;56.33
51083;BME280;37131;42.694;23.350;2023-04-27T01:26:24;95224.28;;;7.15;56.34
51083;BME280;37131;42.694;23.350;2023-04-27T01:28:50;95226.28;;;7.19;56.59
51083;BME280;37131;42.694;23.350;2023-04-27T01:31:15;95228.50;;;7.09;59.43
51083;BME280;37131;42.694;23.350;2023-04-27T01:33:40;95234.47;;;7.03;57.42
51083;BME280;37131;42.694;23.350;2023-04-27T01:36:06;95234.09;;;6.93;58.68
51083;BME280;37131;42.694;23.350;2023-04-27T01:38:32;95232.09;;;7.01;56.35
51083;BME280;37131;42.694;23.350;2023-04-27T01:40:58;95236.06;;;6.91;57.87
51083;BME280;37131;42.694;23.350;2023-04-27T01:43:27;95248.06;;;6.78;58.60
51083;BME280;37131;42.694;23.350;2023-04-27T01:45:53;95241.47;;;6.82;58.10
51083;BME280;37131;42.694;23.350;2023-04-27T01:48:18;95244.84;;;7.10;56.83
51083;BME280;37131;42.694;23.350;2023-04-27T01:50:43;95234.88;;;7.07;56.26
51083;BME280;37131;42.694;23.350;2023-04-27T01:53:08;95236.28;;;6.96;56.48
51083;BME280;37131;42.694;23.350;2023-04-27T01:55:34;95249.66;;;6.73;57.23
51083;BME280;37131;42.694;23.350;2023-04-27T01:57:59;95248.84;;;6.72;57.12
51083;BME280;37131;42.694;23.350;2023-04-27T02:00:24;95245.84;;;6.82;56.77
51083;BME280;37131;42.694;23.350;2023-04-27T02:02:50;95245.47;;;6.78;57.60
51083;BME280;37131;42.694;23.350;2023-04-27T02:05:17;95247.06;;;6.79;58.05
51083;BME280;37131;42.694;23.350;2023-04-27T02:07:42;95242.47;;;6.55;60.86
51083;BME280;37131;42.694;23.350;2023-04-27T02:10:08;95244.47;;;6.46;59.67
51083;BME280;37131;42.694;23.350;2023-04-27T02:12:33;95248.06;;;6.78;58.07
51083;BME280;37131;42.694;23.350;2023-04-27T02:14:58;95251.84;;;6.76;57.09
51083;BME280;37131;42.694;23.350;2023-04-27T02:17:24;95249.25;;;6.69;59.54
51083;BME280;37131;42.694;23.350;2023-04-27T02:19:49;95247.06;;;6.59;58.20
51083;BME280;37131;42.694;23.350;2023-04-27T02:22:14;95249.47;;;6.67;57.64
51083;BME280;37131;42.694;23.350;2023-04-27T02:24:40;95254.03;;;6.72;58.16
51083;BME280;37131;42.694;23.350;2023-04-27T02:27:05;95260.59;;;6.61;56.85
51083;BME280;37131;42.694;23.350;2023-04-27T02:29:31;95251.66;;;6.57;58.32
51083;BME280;37131;42.694;23.350;2023-04-27T02:31:56;95257.41;;;6.59;57.46
51083;BME280;37131;42.694;23.350;2023-04-27T02:34:21;95258.59;;;6.70;57.65
51083;BME280;37131;42.694;23.350;2023-04-27T02:36:47;95256.63;;;6.65;57.02
51083;BME280;37131;42.694;23.350;2023-04-27T02:39:12;95257.00;;;6.62;59.13
51083;BME280;37131;42.694;23.350;2023-04-27T02:41:37;95256.00;;;6.57;58.76
51083;BME280;37131;42.694;23.350;2023-04-27T02:44:02;95259.00;;;6.67;57.80
51083;BME280;37131;42.694;23.350;2023-04-27T02:46:28;95257.03;;;6.69;56.69
51083;BME280;37131;42.694;23.350;2023-04-27T02:48:54;95252.66;;;6.76;57.23
51083;BME280;37131;42.694;23.350;2023-04-27T02:51:19;95256.81;;;6.57;57.79
51083;BME280;37131;42.694;23.350;2023-04-27T02:53:45;95263.38;;;6.46;57.82
51083;BME280;37131;42.694;23.350;2023-04-27T02:56:10;95262.78;;;6.58;57.68
51083;BME280;37131;42.694;23.350;2023-04-27T02:58:35;95256.41;;;6.40;59.09
51083;BME280;37131;42.694;23.350;2023-04-27T03:01:01;95262.34;;;6.21;60.26
51083;BME280;37131;42.694;23.350;2023-04-27T03:03:26;95266.13;;;6.25;58.20
51083;BME280;37131;42.694;23.350;2023-04-27T03:05:51;95267.78;;;6.39;57.67
51083;BME280;37131;42.694;23.350;2023-04-27T03:08:17;95270.50;;;6.24;59.08
51083;BME280;37131;42.694;23.350;2023-04-27T03:10:42;95272.13;;;6.32;59.33
51083;BME280;37131;42.694;23.350;2023-04-27T03:13:07;95276.31;;;6.40;57.46
51083;BME280;37131;42.694;23.350;2023-04-27T03:15:33;95274.69;;;6.25;58.82
51083;BME280;37131;42.694;23.350;2023-04-27T03:17:58;95281.91;;;6.43;57.88
51083;BME280;37131;42.694;23.350;2023-04-27T03:20:24;95285.91;;;6.46;56.37
51083;BME280;37131;42.694;23.350;2023-04-27T03:22:49;95289.03;;;6.14;58.22
51083;BME280;37131;42.694;23.350;2023-04-27T03:25:14;95292.06;;;6.38;57.41
51083;BME280;37131;42.694;23.350;2023-04-27T03:27:39;95291.44;;;6.36;56.92
51083;BME280;37131;42.694;23.350;2023-04-27T03:30:06;95293.66;;;6.39;58.83
51083;BME280;37131;42.694;23.350;2023-04-27T03:32:31;95290.25;;;6.39;58.33
51083;BME280;37131;42.694;23.350;2023-04-27T03:34:57;95287.44;;;6.27;57.25
51083;BME280;37131;42.694;23.350;2023-04-27T03:37:22;95297.63;;;6.35;58.10
51083;BME280;37131;42.694;23.350;2023-04-27T03:39:47;95295.63;;;6.37;57.39
51083;BME280;37131;42.694;23.350;2023-04-27T03:42:13;95302.22;;;6.46;58.05
51083;BME280;37131;42.694;23.350;2023-04-27T03:44:38;95300.66;;;6.59;56.78
51083;BME280;37131;42.694;23.350;2023-04-27T03:47:03;95306.25;;;6.56;56.06
51083;BME280;37131;42.694;23.350;2023-04-27T03:49:33;95307.56;;;6.25;56.35
51083;BME280;37131;42.694;23.350;2023-04-27T03:51:58;95308.72;;;6.15;57.47
51083;BME280;37131;42.694;23.350;2023-04-27T03:54:24;95306.94;;;6.23;57.61
51083;BME280;37131;42.694;23.350;2023-04-27T03:56:49;95312.34;;;6.28;57.03
51083;BME280;37131;42.694;23.350;2023-04-27T03:59:14;95314.97;;;6.41;56.13
51083;BME280;37131;42.694;23.350;2023-04-27T04:01:39;95315.78;;;6.48;58.36
51083;BME280;37131;42.694;23.350;2023-04-27T04:04:05;95319.13;;;6.36;57.12
51083;BME280;37131;42.694;23.350;2023-04-27T04:06:30;95324.94;;;6.44;57.21
51083;BME280;37131;42.694;23.350;2023-04-27T04:08:56;95324.94;;;6.44;56.93
51083;BME280;37131;42.694;23.350;2023-04-27T04:11:21;95329.53;;;6.42;55.98
51083;BME280;37131;42.694;23.350;2023-04-27T04:13:46;95340.44;;;6.38;56.50
51083;BME280;37131;42.694;23.350;2023-04-27T04:16:12;95345.03;;;6.36;56.69
51083;BME280;37131;42.694;23.350;2023-04-27T04:18:37;95337.50;;;6.47;57.04
51083;BME280;37131;42.694;23.350;2023-04-27T04:21:03;95339.38;;;6.12;56.60
51083;BME280;37131;42.694;23.350;2023-04-27T04:23:28;95346.56;;;6.17;56.96
51083;BME280;37131;42.694;23.350;2023-04-27T04:25:54;95350.75;;;6.24;57.65
51083;BME280;37131;42.694;23.350;2023-04-27T04:28:20;95352.75;;;5.80;58.31
51083;BME280;37131;42.694;23.350;2023-04-27T04:30:46;95361.34;;;5.88;57.40
51083;BME280;37131;42.694;23.350;2023-04-27T04:33:12;95357.94;;;5.87;57.72
51083;BME280;37131;42.694;23.350;2023-04-27T04:35:38;95360.59;;;5.94;58.17
51083;BME280;37131;42.694;23.350;2023-04-27T04:38:03;95363.56;;;5.91;58.53
51083;BME280;37131;42.694;23.350;2023-04-27T04:40:28;95359.50;;;6.17;58.51
51083;BME280;37131;42.694;23.350;2023-04-27T04:42:54;95357.47;;;6.05;59.87
51083;BME280;37131;42.694;23.350;2023-04-27T04:45:19;95365.13;;;6.27;58.93
51083;BME280;37131;42.694;23.350;2023-04-27T04:47:45;95367.69;;;6.20;57.82
51083;BME280;37131;42.694;23.350;2023-04-27T04:50:11;95369.13;;;6.36;57.24
51083;BME280;37131;42.694;23.350;2023-04-27T04:52:37;95378.94;;;6.47;57.32
51083;BME280;37131;42.694;23.350;2023-04-27T04:55:02;95380.31;;;6.43;57.05
51083;BME280;37131;42.694;23.350;2023-04-27T04:57:28;95379.28;;;6.31;56.22
51083;BME280;37131;42.694;23.350;2023-04-27T04:59:54;95380.72;;;6.40;55.71
51083;BME280;37131;42.694;23.350;2023-04-27T05:02:19;95389.38;;;6.74;55.71
51083;BME280;37131;42.694;23.350;2023-04-27T05:04:44;95388.38;;;6.82;54.66
51083;BME280;37131;42.694;23.350;2023-04-27T05:07:10;95387.78;;;6.80;55.45
51083;BME280;37131;42.694;23.350;2023-04-27T05:09:35;95395.19;;;6.76;55.38
51083;BME280;37131;42.694;23.350;2023-04-27T05:12:01;95399.69;;;6.61;56.00
51083;BME280;37131;42.694;23.350;2023-04-27T05:14:26;95393.81;;;7.00;55.79
51083;BME280;37131;42.694;23.350;2023-04-27T05:16:51;95396.56;;;6.92;55.90
51083;BME280;37131;42.694;23.350;2023-04-27T05:19:17;95400.75;;;6.80;54.15
51083;BME280;37131;42.694;23.350;2023-04-27T05:21:44;95399.97;;;6.86;54.72
51083;BME280;37131;42.694;23.350;2023-04-27T05:24:10;95403.16;;;6.88;55.12
51083;BME280;37131;42.694;23.350;2023-04-27T05:26:35;95394.81;;;6.93;55.08
51083;BME280;37131;42.694;23.350;2023-04-27T05:29:00;95405.56;;;6.96;55.18
51083;BME280;37131;42.694;23.350;2023-04-27T05:31:26;95414.97;;;7.11;55.46
51083;BME280;37131;42.694;23.350;2023-04-27T05:33:51;95408.59;;;7.33;54.58
51083;BME280;37131;42.694;23.350;2023-04-27T05:36:16;95399.63;;;7.23;53.25
51083;BME280;37131;42.694;23.350;2023-04-27T05:38:41;95411.00;;;7.28;53.13
51083;BME280;37131;42.694;23.350;2023-04-27T05:41:07;95419.38;;;7.44;55.45
51083;BME280;37131;42.694;23.350;2023-04-27T05:43:32;95410.59;;;7.51;53.16
51083;BME280;37131;42.694;23.350;2023-04-27T05:45:59;95410.00;;;7.43;52.77
51083;BME280;37131;42.694;23.350;2023-04-27T05:48:24;95403.00;;;7.43;52.34
51083;BME280;37131;42.694;23.350;2023-04-27T05:50:57;95403.81;;;7.64;52.45
51083;BME280;37131;42.694;23.350;2023-04-27T05:53:23;95409.38;;;7.67;52.45
51083;BME280;37131;42.694;23.350;2023-04-27T05:55:48;95399.38;;;7.78;52.79
51083;BME280;37131;42.694;23.350;2023-04-27T05:58:13;95407.78;;;7.80;52.18
51083;BME280;37131;42.694;23.350;2023-04-27T06:00:38;95415.59;;;7.46;54.85
51083;BME280;37131;42.694;23.350;2023-04-27T06:03:04;95412.38;;;7.71;53.66
51083;BME280;37131;42.694;23.350;2023-04-27T06:05:29;95393.81;;;7.54;52.81
51083;BME280;37131;42.694;23.350;2023-04-27T06:07:54;95407.56;;;7.75;53.08
51083;BME280;37131;42.694;23.350;2023-04-27T06:10:19;95406.56;;;7.89;53.08
51083;BME280;37131;42.694;23.350;2023-04-27T06:12:45;95416.53;;;7.92;52.25
51083;BME280;37131;42.694;23.350;2023-04-27T06:15:10;95409.31;;;8.01;52.31
51083;BME280;37131;42.694;23.350;2023-04-27T06:17:36;95405.91;;;8.14;53.85
51083;BME280;37131;42.694;23.350;2023-04-27T06:20:02;95409.88;;;8.16;53.17
51083;BME280;37131;42.694;23.350;2023-04-27T06:22:30;95402.69;;;8.12;51.46
51083;BME280;37131;42.694;23.350;2023-04-27T06:24:56;95407.75;;;7.93;51.75
51083;BME280;37131;42.694;23.350;2023-04-27T06:27:21;95403.75;;;7.97;53.07
51083;BME280;37131;42.694;23.350;2023-04-27T06:29:46;95396.84;;;8.30;52.55
51083;BME280;37131;42.694;23.350;2023-04-27T06:32:12;95397.38;;;8.58;51.66
51083;BME280;37131;42.694;23.350;2023-04-27T06:34:37;95399.59;;;8.87;52.22
51083;BME280;37131;42.694;23.350;2023-04-27T06:37:02;95394.13;;;8.70;52.87
51083;BME280;37131;42.694;23.350;2023-04-27T06:39:27;95396.63;;;8.83;49.37
51083;BME280;37131;42.694;23.350;2023-04-27T06:41:52;95394.19;;;8.88;49.29
51083;BME280;37131;42.694;23.350;2023-04-27T06:44:18;95392.97;;;8.98;50.05
51083;BME280;37131;42.694;23.350;2023-04-27T06:46:43;95396.16;;;8.61;50.45
51083;BME280;37131;42.694;23.350;2023-04-27T06:49:08;95387.09;;;8.70;50.25
51083;BME280;37131;42.694;23.350;2023-04-27T06:51:34;95387.59;;;8.86;49.80
51083;BME280;37131;42.694;23.350;2023-04-27T06:53:59;95385.28;;;8.71;49.21
51083;BME280;37131;42.694;23.350;2023-04-27T06:56:24;95389.25;;;8.80;48.76
51083;BME280;37131;42.694;23.350;2023-04-27T06:58:49;95399.28;;;9.08;48.41
51083;BME280;37131;42.694;23.350;2023-04-27T07:01:15;95393.31;;;9.01;47.75
51083;BME280;37131;42.694;23.350;2023-04-27T07:03:40;95383.19;;;9.18;48.69
51083;BME280;37131;42.694;23.350;2023-04-27T07:06:06;95383.41;;;9.42;49.27
51083;BME280;37131;42.694;23.350;2023-04-27T07:08:31;95367.78;;;9.42;47.19
51083;BME280;37131;42.694;23.350;2023-04-27T07:10:56;95376.19;;;9.44;47.30
51083;BME280;37131;42.694;23.350;2023-04-27T07:13:21;95368.81;;;9.41;47.19
51083;BME280;37131;42.694;23.350;2023-04-27T07:15:47;95373.22;;;9.40;47.21
51083;BME280;37131;42.694;23.350;2023-04-27T07:18:12;95375.81;;;9.65;47.29
51083;BME280;37131;42.694;23.350;2023-04-27T07:20:37;95376.22;;;9.62;48.61
51083;BME280;37131;42.694;23.350;2023-04-27T07:23:02;95373.22;;;9.65;46.99
51083;BME280;37131;42.694;23.350;2023-04-27T07:25:28;95375.00;;;9.65;46.56
51083;BME280;37131;42.694;23.350;2023-04-27T07:27:53;95373.31;;;9.77;47.61
51083;BME280;37131;42.694;23.350;2023-04-27T07:30:19;95367.16;;;9.72;47.42
51083;BME280;37131;42.694;23.350;2023-04-27T07:32:44;95364.94;;;9.50;47.10
51083;BME280;37131;42.694;23.350;2023-04-27T07:35:10;95370.22;;;9.43;46.77
51083;BME280;37131;42.694;23.350;2023-04-27T07:37:35;95381.88;;;9.34;47.38
51083;BME280;37131;42.694;23.350;2023-04-27T07:40:04;95371.63;;;9.39;47.04
51083;BME280;37131;42.694;23.350;2023-04-27T07:42:38;95385.53;;;9.26;48.02
51083;BME280;37131;42.694;23.350;2023-04-27T07:45:06;95369.81;;;9.15;47.72
51083;BME280;37131;42.694;23.350;2023-04-27T07:47:31;95369.19;;;9.44;48.29
51083;BME280;37131;42.694;23.350;2023-04-27T07:49:57;95370.72;;;9.52;46.86
51083;BME280;37131;42.694;23.350;2023-04-27T07:52:22;95363.50;;;9.73;45.72
51083;BME280;37131;42.694;23.350;2023-04-27T07:54:47;95370.41;;;9.67;44.97
51083;BME280;37131;42.694;23.350;2023-04-27T07:57:13;95369.44;;;9.61;45.20
51083;BME280;37131;42.694;23.350;2023-04-27T07:59:38;95361.94;;;9.90;45.30
51083;BME280;37131;42.694;23.350;2023-04-27T08:02:03;95361.97;;;10.09;45.53
51083;BME280;37131;42.694;23.350;2023-04-27T08:04:28;95325.84;;;9.94;47.95
51083;BME280;37131;42.694;23.350;2023-04-27T08:06:54;95357.22;;;10.55;44.50
51083;BME280;37131;42.694;23.350;2023-04-27T08:09:19;95375.81;;;10.58;43.85
51083;BME280;37131;42.694;23.350;2023-04-27T08:11:45;95376.63;;;10.03;43.85
51083;BME280;37131;42.694;23.350;2023-04-27T08:14:10;95378.91;;;9.99;43.53
51083;BME280;37131;42.694;23.350;2023-04-27T08:16:40;95374.38;;;10.07;44.14
51083;BME280;37131;42.694;23.350;2023-04-27T08:19:06;95359.50;;;10.63;45.06
51083;BME280;37131;42.694;23.350;2023-04-27T08:21:31;95371.34;;;10.77;43.07
51083;BME280;37131;42.694;23.350;2023-04-27T08:23:57;95361.44;;;10.56;43.09
51083;BME280;37131;42.694;23.350;2023-04-27T08:26:22;95359.38;;;10.88;43.21
51083;BME280;37131;42.694;23.350;2023-04-27T08:28:47;95357.25;;;11.09;43.15
51083;BME280;37131;42.694;23.350;2023-04-27T08:31:13;95356.16;;;11.28;41.45
51083;BME280;37131;42.694;23.350;2023-04-27T08:33:39;95353.66;;;11.33;41.36
51083;BME280;37131;42.694;23.350;2023-04-27T08:36:04;95344.94;;;11.39;42.38
51083;BME280;37131;42.694;23.350;2023-04-27T08:38:29;95351.66;;;11.71;41.14
51083;BME280;37131;42.694;23.350;2023-04-27T08:40:55;95346.53;;;11.40;41.59
51083;BME280;37131;42.694;23.350;2023-04-27T08:43:21;95357.53;;;11.90;41.71
51083;BME280;37131;42.694;23.350;2023-04-27T08:45:47;95360.72;;;11.92;41.24
51083;BME280;37131;42.694;23.350;2023-04-27T08:48:12;95363.69;;;11.96;41.36
51083;BME280;37131;42.694;23.350;2023-04-27T08:50:37;95366.63;;;11.28;41.92
51083;BME280;37131;42.694;23.350;2023-04-27T08:53:05;95367.06;;;11.25;42.32
51083;BME280;37131;42.694;23.350;2023-04-27T08:55:40;95354.81;;;11.61;42.56
51083;BME280;37131;42.694;23.350;2023-04-27T08:58:06;95350.28;;;11.45;41.34
51083;BME280;37131;42.694;23.350;2023-04-27T09:00:36;95359.72;;;11.46;42.13
51083;BME280;37131;42.694;23.350;2023-04-27T09:03:03;95358.13;;;11.68;42.08
51083;BME280;37131;42.694;23.350;2023-04-27T09:05:28;95356.38;;;12.21;40.55
51083;BME280;37131;42.694;23.350;2023-04-27T09:07:58;95351.06;;;11.81;41.08
51083;BME280;37131;42.694;23.350;2023-04-27T09:10:23;95356.63;;;11.84;39.98
51083;BME280;37131;42.694;23.350;2023-04-27T09:12:58;95357.75;;;11.76;41.00
51083;BME280;37131;42.694;23.350;2023-04-27T09:15:24;95357.66;;;11.71;40.92
51083;BME280;37131;42.694;23.350;2023-04-27T09:17:55;95349.13;;;11.88;41.03
51083;BME280;37131;42.694;23.350;2023-04-27T09:20:21;95340.53;;;12.28;40.71
51083;BME280;37131;42.694;23.350;2023-04-27T09:22:47;95342.69;;;12.31;39.77
51083;BME280;37131;42.694;23.350;2023-04-27T09:25:25;95348.13;;;12.01;40.89
51083;BME280;37131;42.694;23.350;2023-04-27T09:27:51;95345.28;;;12.02;41.71
51083;BME280;37131;42.694;23.350;2023-04-27T09:30:17;95346.53;;;12.00;42.77
51083;BME280;37131;42.694;23.350;2023-04-27T09:32:58;95343.66;;;11.89;41.72
51083;BME280;37131;42.694;23.350;2023-04-27T09:35:26;95332.41;;;12.13;40.15
51083;BME280;37131;42.694;23.350;2023-04-27T09:37:52;95334.84;;;12.31;40.98
51083;BME280;37131;42.694;23.350;2023-04-27T09:40:19;95327.66;;;12.38;40.08
51083;BME280;37131;42.694;23.350;2023-04-27T09:42:44;95325.34;;;12.54;39.61
51083;BME280;37131;42.694;23.350;2023-04-27T09:45:10;95320.44;;;12.57;41.81
51083;BME280;37131;42.694;23.350;2023-04-27T09:47:35;95320.66;;;12.56;39.26
51083;BME280;37131;42.694;23.350;2023-04-27T09:50:01;95323.47;;;12.37;38.96
51083;BME280;37131;42.694;23.350;2023-04-27T09:52:27;95318.22;;;12.49;39.50
51083;BME280;37131;42.694;23.350;2023-04-27T09:54:55;95312.59;;;12.57;41.07
51083;BME280;37131;42.694;23.350;2023-04-27T09:57:46;95317.03;;;12.74;38.23
51083;BME280;37131;42.694;23.350;2023-04-27T10:03:21;95313.88;;;12.14;40.21
51083;BME280;37131;42.694;23.350;2023-04-27T10:05:27;95316.78;;;12.29;39.75
51083;BME280;37131;42.694;23.350;2023-04-27T10:07:55;95321.00;;;12.31;39.08
51083;BME280;37131;42.694;23.350;2023-04-27T10:10:20;95319.69;;;12.04;41.20
51083;BME280;37131;42.694;23.350;2023-04-27T10:13:00;95313.69;;;11.80;40.46
51083;BME280;37131;42.694;23.350;2023-04-27T10:15:26;95312.22;;;11.96;39.56
51083;BME280;37131;42.694;23.350;2023-04-27T10:17:54;95315.53;;;12.32;40.80
51083;BME280;37131;42.694;23.350;2023-04-27T10:20:34;95319.34;;;12.70;38.57
51083;BME280;37131;42.694;23.350;2023-04-27T10:23:00;95317.38;;;12.77;39.09
51083;BME280;37131;42.694;23.350;2023-04-27T10:25:26;95312.28;;;12.71;38.09
51083;BME280;37131;42.694;23.350;2023-04-27T10:27:59;95307.56;;;12.85;37.31
51083;BME280;37131;42.694;23.350;2023-04-27T10:30:26;95306.16;;;13.28;39.28
51083;BME280;37131;42.694;23.350;2023-04-27T10:32:52;95300.97;;;13.33;37.38
51083;BME280;37131;42.694;23.350;2023-04-27T10:35:18;95298.16;;;13.74;37.03
51083;BME280;37131;42.694;23.350;2023-04-27T10:37:44;95295.16;;;13.65;35.86
51083;BME280;37131;42.694;23.350;2023-04-27T10:40:11;95300.19;;;13.32;35.81
51083;BME280;37131;42.694;23.350;2023-04-27T10:42:46;95302.25;;;13.30;36.03
51083;BME280;37131;42.694;23.350;2023-04-27T10:45:13;95299.06;;;13.28;36.20
51083;BME280;37131;42.694;23.350;2023-04-27T10:47:42;95292.34;;;13.49;35.39
51083;BME280;37131;42.694;23.350;2023-04-27T10:50:08;95294.06;;;13.61;37.12
51083;BME280;37131;42.694;23.350;2023-04-27T10:52:39;95288.69;;;13.50;35.13
51083;BME280;37131;42.694;23.350;2023-04-27T10:55:14;95300.91;;;13.28;35.07
51083;BME280;37131;42.694;23.350;2023-04-27T10:57:49;95301.78;;;13.16;37.46
51083;BME280;37131;42.694;23.350;2023-04-27T11:00:20;95301.63;;;13.06;36.63
51083;BME280;37131;42.694;23.350;2023-04-27T11:02:46;95299.97;;;13.34;37.51
51083;BME280;37131;42.694;23.350;2023-04-27T11:05:18;95288.53;;;13.23;37.93
51083;BME280;37131;42.694;23.350;2023-04-27T11:07:43;95295.50;;;13.01;36.09
51083;BME280;37131;42.694;23.350;2023-04-27T11:10:13;95300.34;;;13.09;36.97
51083;BME280;37131;42.694;23.350;2023-04-27T11:12:38;95300.03;;;13.05;35.61
51083;BME280;37131;42.694;23.350;2023-04-27T11:15:04;95294.34;;;13.08;36.06
51083;BME280;37131;42.694;23.350;2023-04-27T11:17:30;95296.22;;;13.13;36.65
51083;BME280;37131;42.694;23.350;2023-04-27T11:19:56;95296.34;;;12.72;36.60
51083;BME280;37131;42.694;23.350;2023-04-27T11:22:21;95304.78;;;12.74;37.76
51083;BME280;37131;42.694;23.350;2023-04-27T11:24:49;95294.78;;;12.71;37.12
51083;BME280;37131;42.694;23.350;2023-04-27T11:27:15;95305.31;;;12.76;36.41
51083;BME280;37131;42.694;23.350;2023-04-27T11:29:41;95305.66;;;12.97;37.26
51083;BME280;37131;42.694;23.350;2023-04-27T11:32:06;95314.59;;;12.84;36.10
51083;BME280;37131;42.694;23.350;2023-04-27T11:34:31;95312.16;;;12.77;36.23
51083;BME280;37131;42.694;23.350;2023-04-27T11:37:03;95306.53;;;12.86;36.29
51083;BME280;37131;42.694;23.350;2023-04-27T11:39:33;95306.31;;;13.04;35.97
51083;BME280;37131;42.694;23.350;2023-04-27T11:44:40;95308.53;;;12.78;36.73
51083;BME280;37131;42.694;23.350;2023-04-27T11:47:05;95318.34;;;13.22;37.20
51083;BME280;37131;42.694;23.350;2023-04-27T11:49:31;95313.13;;;13.22;35.40
51083;BME280;37131;42.694;23.350;2023-04-27T11:51:56;95318.53;;;13.15;35.49
51083;BME280;37131;42.694;23.350;2023-04-27T11:54:26;95316.31;;;13.24;36.45
51083;BME280;37131;42.694;23.350;2023-04-27T11:56:52;95309.63;;;13.16;37.89
51083;BME280;37131;42.694;23.350;2023-04-27T11:59:21;95318.13;;;13.24;36.30
51083;BME280;37131;42.694;23.350;2023-04-27T12:01:47;95316.69;;;13.16;36.25
51083;BME280;37131;42.694;23.350;2023-04-27T12:04:12;95308.91;;;13.04;36.27
51083;BME280;37131;42.694;23.350;2023-04-27T12:06:38;95317.81;;;13.20;35.65
51083;BME280;37131;42.694;23.350;2023-04-27T12:09:03;95323.91;;;13.09;37.34
51083;BME280;37131;42.694;23.350;2023-04-27T12:11:29;95325.72;;;12.74;36.61
51083;BME280;37131;42.694;23.350;2023-04-27T12:13:54;95313.66;;;12.73;36.57
51083;BME280;37131;42.694;23.350;2023-04-27T12:16:20;95316.81;;;12.75;37.51
51083;BME280;37131;42.694;23.350;2023-04-27T12:18:47;95319.13;;;12.89;36.99
51083;BME280;37131;42.694;23.350;2023-04-27T12:21:12;95317.88;;;13.25;36.55
51083;BME280;37131;42.694;23.350;2023-04-27T12:23:38;95310.81;;;13.60;35.52
51083;BME280;37131;42.694;23.350;2023-04-27T12:26:03;95310.91;;;14.31;34.08
51083;BME280;37131;42.694;23.350;2023-04-27T12:28:29;95310.66;;;14.11;34.64
51083;BME280;37131;42.694;23.350;2023-04-27T12:30:54;95303.84;;;13.88;35.48
51083;BME280;37131;42.694;23.350;2023-04-27T12:33:20;95311.03;;;13.75;34.06
51083;BME280;37131;42.694;23.350;2023-04-27T12:35:45;95311.16;;;14.08;35.29
51083;BME280;37131;42.694;23.350;2023-04-27T12:38:11;95312.56;;;13.93;34.70
51083;BME280;37131;42.694;23.350;2023-04-27T12:40:36;95310.63;;;13.66;35.23
51083;BME280;37131;42.694;23.350;2023-04-27T12:43:01;95314.03;;;13.84;34.46
51083;BME280;37131;42.694;23.350;2023-04-27T12:45:27;95313.16;;;14.00;36.14
51083;BME280;37131;42.694;23.350;2023-04-27T12:47:52;95317.84;;;13.76;36.04
51083;BME280;37131;42.694;23.350;2023-04-27T12:50:18;95312.06;;;13.96;37.05
51083;BME280;37131;42.694;23.350;2023-04-27T12:52:44;95319.41;;;13.77;35.48
51083;BME280;37131;42.694;23.350;2023-04-27T12:55:09;95315.78;;;13.78;35.38
51083;BME280;37131;42.694;23.350;2023-04-27T12:57:35;95324.09;;;13.53;35.86